createdAt,value
2023-04-17T00:00:05.013Z,99415.73
2023-04-17T00:05:23.493Z,99417.98
2023-04-17T00:07:51.253Z,99418.50
2023-04-17T00:10:19.018Z,99416.77
2023-04-17T00:12:46.773Z,99416.42
2023-04-17T00:15:14.534Z,99421.45
2023-04-17T00:17:42.365Z,99420.95
2023-04-17T00:20:13.748Z,99421.82
2023-04-17T00:22:41.420Z,99419.91
2023-04-17T00:25:10.716Z,99421.66
2023-04-17T00:27:38.520Z,99422.88
2023-04-17T00:30:06.557Z,99421.84
2023-04-17T00:32:34.395Z,99421.49
2023-04-17T00:35:02.221Z,99418.70
2023-04-17T00:37:30.047Z,99415.05
2023-04-17T00:39:57.710Z,99416.80
2023-04-17T00:42:25.758Z,99415.39
2023-04-17T00:44:53.447Z,99413.48
2023-04-17T00:47:22.844Z,99411.92
2023-04-17T00:49:50.607Z,99411.56
2023-04-17T00:52:18.272Z,99409.83
2023-04-17T00:54:46.038Z,99411.39
2023-04-17T00:57:13.770Z,99410.17
2023-04-17T00:59:41.464Z,99411.58
2023-04-17T01:02:09.334Z,99415.23
2023-04-17T01:04:37.092Z,99414.52
2023-04-17T01:07:04.752Z,99417.63
2023-04-17T01:09:32.521Z,99416.77
2023-04-17T01:12:00.178Z,99414.52
2023-04-17T01:14:27.848Z,99412.77
2023-04-17T01:16:55.532Z,99413.30
2023-04-17T01:19:23.371Z,99415.91
2023-04-17T01:21:51.128Z,99414.52
2023-04-17T01:24:18.792Z,99414.88
2023-04-17T01:26:46.862Z,99420.27
2023-04-17T01:29:14.526Z,99420.09
2023-04-17T01:31:42.183Z,99420.97
2023-04-17T01:34:09.848Z,99424.27
2023-04-17T01:36:37.515Z,99420.09
2023-04-17T01:39:05.275Z,99416.26
2023-04-17T01:41:32.937Z,99414.85
2023-04-17T01:44:00.909Z,99418.52
2023-04-17T01:46:28.627Z,99419.92
2023-04-17T01:48:56.435Z,99416.41
2023-04-17T01:51:24.096Z,99416.58
2023-04-17T01:53:51.860Z,99414.66
2023-04-17T01:56:19.522Z,99416.58
2023-04-17T01:58:47.192Z,99414.83
2023-04-17T02:01:14.868Z,99414.16
2023-04-17T02:03:42.985Z,99414.69
2023-04-17T02:06:11.296Z,99414.85
2023-04-17T02:08:38.958Z,99418.66
2023-04-17T02:11:06.647Z,99414.83
2023-04-17T02:13:34.384Z,99418.30
2023-04-17T02:16:02.167Z,99421.09
2023-04-17T02:18:30.115Z,99421.96
2023-04-17T02:20:57.777Z,99424.06
2023-04-17T02:23:25.640Z,99420.56
2023-04-17T02:25:53.304Z,99416.91
2023-04-17T02:28:20.965Z,99416.02
2023-04-17T02:30:48.734Z,99413.92
2023-04-17T02:33:16.604Z,99420.89
2023-04-17T02:35:44.261Z,99422.29
2023-04-17T02:38:11.940Z,99421.75
2023-04-17T02:40:39.682Z,99419.67
2023-04-17T02:43:07.345Z,99418.98
2023-04-17T02:45:35.032Z,99416.70
2023-04-17T02:48:02.713Z,99418.26
2023-04-17T02:50:30.538Z,99417.57
2023-04-17T02:52:58.305Z,99418.98
2023-04-17T02:55:26.077Z,99422.80
2023-04-17T02:57:53.830Z,99421.42
2023-04-17T03:00:21.598Z,99423.34
2023-04-17T03:02:49.507Z,99420.02
2023-04-17T03:05:17.543Z,99419.16
2023-04-17T03:07:45.497Z,99422.29
2023-04-17T03:10:13.679Z,99420.52
2023-04-17T03:12:41.440Z,99420.16
2023-04-17T03:15:09.182Z,99424.52
2023-04-17T03:17:36.982Z,99427.48
2023-04-17T03:20:05.350Z,99428.88
2023-04-17T03:22:33.330Z,99434.11
2023-04-17T03:25:01.098Z,99435.86
2023-04-17T03:27:28.847Z,99430.44
2023-04-17T03:29:56.713Z,99433.23
2023-04-17T03:32:24.451Z,99434.45
2023-04-17T03:34:52.244Z,99434.79
2023-04-17T03:37:20.007Z,99432.02
2023-04-17T03:39:47.772Z,99430.80
2023-04-17T03:42:15.636Z,99426.98
2023-04-17T03:44:43.329Z,99425.23
2023-04-17T03:47:11.534Z,99422.61
2023-04-17T03:49:39.442Z,99424.52
2023-04-17T03:52:07.205Z,99425.41
2023-04-17T03:54:35.947Z,99424.36
2023-04-17T03:57:03.760Z,99424.54
2023-04-17T03:59:31.756Z,99430.48
2023-04-17T04:01:59.810Z,99428.23
2023-04-17T04:04:27.924Z,99429.27
2023-04-17T04:06:57.943Z,99428.92
2023-04-17T04:09:25.953Z,99431.70
2023-04-17T04:11:53.715Z,99436.94
2023-04-17T04:14:21.473Z,99435.38
2023-04-17T04:16:49.189Z,99435.20
2023-04-17T04:19:17.337Z,99437.83
2023-04-17T04:21:45.388Z,99441.13
2023-04-17T04:24:14.395Z,99436.95
2023-04-17T04:26:42.650Z,99442.16
2023-04-17T04:29:12.148Z,99435.54
2023-04-17T04:31:40.890Z,99439.56
2023-04-17T04:34:09.916Z,99441.98
2023-04-17T04:36:42.142Z,99443.58
2023-04-17T04:39:10.312Z,99448.61
2023-04-17T04:41:38.584Z,99454.02
2023-04-17T04:44:06.323Z,99456.27
2023-04-17T04:46:34.008Z,99456.09
2023-04-17T04:49:01.781Z,99457.13
2023-04-17T04:51:29.920Z,99455.36
2023-04-17T04:53:57.586Z,99456.77
2023-04-17T04:56:25.352Z,99454.50
2023-04-17T04:58:53.109Z,99459.55
2023-04-17T05:01:21.234Z,99460.93
2023-04-17T05:03:49.102Z,99458.14
2023-04-17T05:06:17.225Z,99458.29
2023-04-17T05:08:45.398Z,99463.53
2023-04-17T05:11:13.169Z,99469.45
2023-04-17T05:13:41.042Z,99468.07
2023-04-17T05:16:08.836Z,99464.22
2023-04-17T05:18:36.554Z,99462.46
2023-04-17T05:21:04.220Z,99459.84
2023-04-17T05:23:31.985Z,99453.91
2023-04-17T05:25:59.655Z,99458.09
2023-04-17T05:28:27.517Z,99459.12
2023-04-17T05:30:55.176Z,99463.13
2023-04-17T05:33:22.838Z,99457.02
2023-04-17T05:35:52.916Z,99459.09
2023-04-17T05:38:22.562Z,99464.15
2023-04-17T05:40:50.232Z,99464.84
2023-04-17T05:43:17.988Z,99466.76
2023-04-17T05:45:45.925Z,99468.67
2023-04-17T05:48:13.616Z,99473.53
2023-04-17T05:50:41.380Z,99472.66
2023-04-17T05:53:09.053Z,99476.69
2023-04-17T05:55:36.705Z,99473.70
2023-04-17T05:58:16.851Z,99473.01
2023-04-17T06:00:51.177Z,99479.10
2023-04-17T06:03:19.479Z,99478.58
2023-04-17T06:05:48.445Z,99479.09
2023-04-17T06:08:16.521Z,99477.70
2023-04-17T06:10:46.126Z,99482.42
2023-04-17T06:13:14.040Z,99485.54
2023-04-17T06:15:41.872Z,99486.59
2023-04-17T06:18:10.100Z,99488.16
2023-04-17T06:20:40.032Z,99491.83
2023-04-17T06:23:08.223Z,99491.14
2023-04-17T06:25:35.912Z,99490.95
2023-04-17T06:28:04.070Z,99491.13
2023-04-17T06:30:31.847Z,99493.21
2023-04-17T06:32:59.634Z,99495.81
2023-04-17T06:35:27.455Z,99497.21
2023-04-17T06:37:55.423Z,99498.27
2023-04-17T06:40:23.106Z,99502.81
2023-04-17T06:42:50.856Z,99502.98
2023-04-17T06:45:18.510Z,99507.52
2023-04-17T06:47:46.653Z,99510.13
2023-04-17T06:50:14.656Z,99509.08
2023-04-17T06:52:42.315Z,99505.42
2023-04-17T06:55:09.977Z,99503.85
2023-04-17T06:57:38.469Z,99509.77
2023-04-17T07:00:06.106Z,99508.73
2023-04-17T07:02:33.888Z,99511.34
2023-04-17T07:05:01.794Z,99510.64
2023-04-17T07:07:31.047Z,99510.09
2023-04-17T07:09:58.716Z,99512.89
2023-04-17T07:12:27.598Z,99508.19
2023-04-17T07:14:55.257Z,99512.38
2023-04-17T07:17:23.360Z,99511.52
2023-04-17T07:19:51.094Z,99516.92
2023-04-17T07:22:18.862Z,99516.20
2023-04-17T07:24:46.521Z,99520.88
2023-04-17T07:27:14.149Z,99524.72
2023-04-17T07:29:42.051Z,99521.73
2023-04-17T07:32:09.708Z,99526.61
2023-04-17T07:34:41.573Z,99530.45
2023-04-17T07:37:09.438Z,99536.73
2023-04-17T07:39:37.108Z,99537.73
2023-04-17T07:42:07.528Z,99537.36
2023-04-17T07:44:35.190Z,99536.85
2023-04-17T07:47:03.008Z,99537.88
2023-04-17T07:49:31.228Z,99541.88
2023-04-17T07:51:58.993Z,99545.19
2023-04-17T07:54:26.764Z,99548.33
2023-04-17T07:56:58.511Z,99549.70
2023-04-17T07:59:26.174Z,99552.66
2023-04-17T08:01:54.031Z,99555.45
2023-04-17T08:04:21.940Z,99557.20
2023-04-17T08:06:50.803Z,99556.67
2023-04-17T08:09:18.460Z,99558.93
2023-04-17T08:11:56.195Z,99559.11
2023-04-17T08:14:25.599Z,99559.27
2023-04-17T08:16:53.487Z,99561.00
2023-04-17T08:19:21.197Z,99560.48
2023-04-17T08:21:48.957Z,99559.09
2023-04-17T08:24:19.224Z,99560.66
2023-04-17T08:26:47.593Z,99565.91
2023-04-17T08:29:16.036Z,99565.23
2023-04-17T08:31:43.921Z,99564.33
2023-04-17T08:34:15.080Z,99564.86
2023-04-17T08:36:43.477Z,99565.04
2023-04-17T08:39:12.743Z,99567.65
2023-04-17T08:41:40.700Z,99565.92
2023-04-17T08:44:08.355Z,99567.15
2023-04-17T08:46:36.167Z,99561.38
2023-04-17T08:49:04.606Z,99562.23
2023-04-17T08:51:32.876Z,99562.92
2023-04-17T08:54:00.541Z,99564.65
2023-04-17T08:56:28.175Z,99562.73
2023-04-17T08:58:56.065Z,99563.10
2023-04-17T09:01:23.957Z,99564.84
2023-04-17T09:03:52.368Z,99566.91
2023-04-17T09:06:20.491Z,99563.23
2023-04-17T09:08:48.153Z,99560.28
2023-04-17T09:11:16.014Z,99562.02
2023-04-17T09:13:43.881Z,99561.48
2023-04-17T09:16:13.126Z,99559.58
2023-04-17T09:18:42.788Z,99563.05
2023-04-17T09:21:10.456Z,99560.23
2023-04-17T09:23:38.214Z,99558.66
2023-04-17T09:26:06.089Z,99560.92
2023-04-17T09:28:35.684Z,99558.48
2023-04-17T09:31:03.370Z,99562.15
2023-04-17T09:33:31.629Z,99560.21
2023-04-17T09:35:59.393Z,99563.14
2023-04-17T09:38:27.152Z,99563.48
2023-04-17T09:40:54.818Z,99561.91
2023-04-17T09:43:24.017Z,99560.34
2023-04-17T09:45:52.499Z,99561.22
2023-04-17T09:48:20.259Z,99562.06
2023-04-17T09:50:47.924Z,99560.63
2023-04-17T09:53:17.326Z,99555.54
2023-04-17T09:55:45.187Z,99556.93
2023-04-17T09:58:12.853Z,99552.38
2023-04-17T10:00:41.253Z,99551.13
2023-04-17T10:03:09.369Z,99552.70
2023-04-17T10:05:37.370Z,99553.02
2023-04-17T10:08:05.033Z,99553.71
2023-04-17T10:10:34.247Z,99558.77
2023-04-17T10:13:02.193Z,99556.73
2023-04-17T10:15:29.862Z,99559.38
2023-04-17T10:17:57.881Z,99557.13
2023-04-17T10:20:25.694Z,99558.71
2023-04-17T10:22:57.052Z,99556.95
2023-04-17T10:25:24.814Z,99559.23
2023-04-17T10:27:53.594Z,99556.64
2023-04-17T10:30:23.267Z,99558.41
2023-04-17T10:32:51.595Z,99557.18
2023-04-17T10:35:19.857Z,99556.32
2023-04-17T10:37:47.622Z,99558.59
2023-04-17T10:40:21.354Z,99560.16
2023-04-17T10:42:49.293Z,99557.58
2023-04-17T10:45:17.262Z,99554.98
2023-04-17T10:47:45.676Z,99554.81
2023-04-17T10:50:15.081Z,99551.31
2023-04-17T10:52:44.970Z,99553.38
2023-04-17T10:55:14.588Z,99553.20
2023-04-17T10:57:42.328Z,99550.98
2023-04-17T11:00:11.852Z,99553.59
2023-04-17T11:02:39.666Z,99553.96
2023-04-17T11:05:07.886Z,99555.53
2023-04-17T11:07:35.948Z,99557.61
2023-04-17T11:10:03.606Z,99555.69
2023-04-17T11:12:31.269Z,99558.83
2023-04-17T11:14:58.931Z,99554.30
2023-04-17T11:17:26.738Z,99557.80
2023-04-17T11:19:54.459Z,99556.75
2023-04-17T11:22:22.224Z,99558.48
2023-04-17T11:24:49.886Z,99557.09
2023-04-17T11:27:17.547Z,99558.67
2023-04-17T11:29:45.209Z,99560.94
2023-04-17T11:32:12.979Z,99557.11
2023-04-17T11:34:41.206Z,99557.65
2023-04-17T11:37:09.218Z,99555.34
2023-04-17T11:39:36.882Z,99557.96
2023-04-17T11:42:05.554Z,99554.14
2023-04-17T11:44:33.432Z,99554.84
2023-04-17T11:47:01.196Z,99562.02
2023-04-17T11:49:28.961Z,99558.52
2023-04-17T11:51:58.992Z,99559.72
2023-04-17T11:54:27.952Z,99559.20
2023-04-17T11:56:57.167Z,99558.67
2023-04-17T11:59:24.831Z,99557.80
2023-04-17T12:01:53.418Z,99555.38
2023-04-17T12:04:22.285Z,99560.59
2023-04-17T12:06:50.167Z,99558.30
2023-04-17T12:09:17.847Z,99560.56
2023-04-17T12:11:45.908Z,99560.05
2023-04-17T12:14:14.239Z,99559.90
2023-04-17T12:16:42.322Z,99560.25
2023-04-17T12:19:11.757Z,99559.02
2023-04-17T12:21:39.420Z,99556.71
2023-04-17T12:24:07.185Z,99561.61
2023-04-17T12:26:34.857Z,99561.98
2023-04-17T12:29:02.514Z,99562.17
2023-04-17T12:31:31.121Z,99560.78
2023-04-17T12:33:58.855Z,99564.98
2023-04-17T12:36:26.857Z,99560.77
2023-04-17T12:38:54.690Z,99561.29
2023-04-17T12:41:22.375Z,99557.08
2023-04-17T12:43:50.013Z,99560.76
2023-04-17T12:46:17.939Z,99563.56
2023-04-17T12:48:45.750Z,99560.93
2023-04-17T12:51:13.613Z,99556.38
2023-04-17T12:53:41.272Z,99557.09
2023-04-17T12:56:08.937Z,99558.83
2023-04-17T12:58:36.600Z,99563.55
2023-04-17T13:01:04.498Z,99558.84
2023-04-17T13:03:32.378Z,99564.27
2023-04-17T13:06:00.302Z,99560.40
2023-04-17T13:08:28.063Z,99562.33
2023-04-17T13:10:56.560Z,99561.98
2023-04-17T13:13:24.205Z,99560.75
2023-04-17T13:15:52.072Z,99557.61
2023-04-17T13:18:19.834Z,99555.70
2023-04-17T13:20:47.496Z,99557.42
2023-04-17T13:23:15.261Z,99556.91
2023-04-17T13:25:42.954Z,99556.58
2023-04-17T13:28:10.704Z,99559.73
2023-04-17T13:30:39.836Z,99555.73
2023-04-17T13:33:08.013Z,99554.38
2023-04-17T13:35:35.961Z,99555.05
2023-04-17T13:38:03.895Z,99555.58
2023-04-17T13:40:31.655Z,99554.20
2023-04-17T13:43:00.523Z,99552.98
2023-04-17T13:45:28.426Z,99551.07
2023-04-17T13:47:56.232Z,99555.95
2023-04-17T13:50:24.051Z,99550.88
2023-04-17T13:52:51.705Z,99549.63
2023-04-17T13:55:19.469Z,99550.34
2023-04-17T13:57:47.231Z,99551.02
2023-04-17T14:00:14.898Z,99548.60
2023-04-17T14:02:42.877Z,99551.41
2023-04-17T14:05:10.943Z,99544.77
2023-04-17T14:07:38.904Z,99541.80
2023-04-17T14:10:06.873Z,99543.02
2023-04-17T14:12:34.645Z,99542.70
2023-04-17T14:15:02.404Z,99540.09
2023-04-17T14:17:30.184Z,99543.41
2023-04-17T14:19:57.929Z,99545.50
2023-04-17T14:22:25.589Z,99540.60
2023-04-17T14:24:53.255Z,99541.98
2023-04-17T14:27:20.925Z,99537.80
2023-04-17T14:29:48.688Z,99538.33
2023-04-17T14:32:16.438Z,99537.80
2023-04-17T14:34:44.105Z,99535.02
2023-04-17T14:37:11.765Z,99534.99
2023-04-17T14:39:39.426Z,99532.89
2023-04-17T14:42:07.192Z,99533.08
2023-04-17T14:44:34.862Z,99532.23
2023-04-17T14:47:02.577Z,99533.98
2023-04-17T14:49:30.687Z,99529.79
2023-04-17T14:51:58.383Z,99530.48
2023-04-17T14:54:26.006Z,99530.15
2023-04-17T14:56:53.985Z,99530.52
2023-04-17T14:59:21.846Z,99530.88
2023-04-17T15:01:49.525Z,99530.17
2023-04-17T15:04:17.737Z,99532.11
2023-04-17T15:06:45.959Z,99532.62
2023-04-17T15:09:13.911Z,99531.92
2023-04-17T15:11:41.796Z,99533.67
2023-04-17T15:14:09.575Z,99533.85
2023-04-17T15:16:37.356Z,99534.91
2023-04-17T15:19:05.455Z,99535.60
2023-04-17T15:21:33.279Z,99532.45
2023-04-17T15:24:01.139Z,99531.93
2023-04-17T15:26:28.894Z,99529.31
2023-04-17T15:28:56.553Z,99528.64
2023-04-17T15:31:24.224Z,99526.89
2023-04-17T15:33:51.980Z,99529.51
2023-04-17T15:36:19.706Z,99528.43
2023-04-17T15:38:47.409Z,99531.23
2023-04-17T15:41:15.172Z,99532.30
2023-04-17T15:43:42.932Z,99532.64
2023-04-17T15:46:10.625Z,99534.73
2023-04-17T15:48:38.466Z,99533.36
2023-04-17T15:51:06.227Z,99535.27
2023-04-17T15:53:34.117Z,99535.64
2023-04-17T15:56:07.283Z,99534.96
2023-04-17T15:58:36.071Z,99535.51
2023-04-17T16:01:11.559Z,99536.73
2023-04-17T16:03:41.174Z,99536.93
2023-04-17T16:06:11.357Z,99533.24
2023-04-17T16:08:39.110Z,99538.67
2023-04-17T16:11:06.771Z,99543.22
2023-04-17T16:13:34.436Z,99538.00
2023-04-17T16:16:02.325Z,99542.54
2023-04-17T16:18:30.077Z,99542.01
2023-04-17T16:20:57.824Z,99544.63
2023-04-17T16:23:25.588Z,99547.25
2023-04-17T16:25:53.762Z,99548.48
2023-04-17T16:28:21.426Z,99547.80
2023-04-17T16:30:49.290Z,99549.36
2023-04-17T16:33:16.952Z,99552.16
2023-04-17T16:35:44.733Z,99555.98
2023-04-17T16:38:12.402Z,99557.23
2023-04-17T16:40:40.265Z,99553.73
2023-04-17T16:43:09.237Z,99557.23
2023-04-17T16:45:37.423Z,99558.12
2023-04-17T16:48:05.465Z,99558.46
2023-04-17T16:50:33.352Z,99557.42
2023-04-17T16:53:01.011Z,99560.39
2023-04-17T16:55:28.774Z,99564.59
2023-04-17T16:57:57.588Z,99565.29
2023-04-17T17:00:25.635Z,99568.96
2023-04-17T17:02:53.401Z,99568.96
2023-04-17T17:05:21.683Z,99570.00
2023-04-17T17:07:49.439Z,99571.75
2023-04-17T17:10:17.211Z,99570.01
2023-04-17T17:12:45.067Z,99575.05
2023-04-17T17:15:13.045Z,99574.20
2023-04-17T17:17:40.834Z,99569.30
2023-04-17T17:20:08.568Z,99573.47
2023-04-17T17:22:36.232Z,99574.35
2023-04-17T17:25:04.094Z,99572.60
2023-04-17T17:27:31.753Z,99572.27
2023-04-17T17:30:00.514Z,99576.98
2023-04-17T17:32:28.681Z,99581.16
2023-04-17T17:34:58.533Z,99581.85
2023-04-17T17:37:27.628Z,99581.86
2023-04-17T17:39:55.392Z,99587.09
2023-04-17T17:42:23.157Z,99587.10
2023-04-17T17:44:50.818Z,99590.94
2023-04-17T17:47:18.585Z,99590.93
2023-04-17T17:49:46.352Z,99589.36
2023-04-17T17:52:14.111Z,99590.05
2023-04-17T17:54:42.899Z,99592.14
2023-04-17T17:57:10.635Z,99595.81
2023-04-17T17:59:38.362Z,99595.66
2023-04-17T18:02:06.232Z,99596.52
2023-04-17T18:04:34.328Z,99598.25
2023-04-17T18:07:02.226Z,99598.77
2023-04-17T18:09:29.896Z,99600.70
2023-04-17T18:11:57.553Z,99603.66
2023-04-17T18:14:25.215Z,99607.34
2023-04-17T18:16:52.884Z,99611.16
2023-04-17T18:19:20.666Z,99611.52
2023-04-17T18:21:48.613Z,99610.98
2023-04-17T18:24:16.288Z,99610.64
2023-04-17T18:26:44.036Z,99611.00
2023-04-17T18:29:11.711Z,99609.09
2023-04-17T18:31:39.491Z,99611.52
2023-04-17T18:34:07.327Z,99611.86
2023-04-17T18:36:35.094Z,99611.87
2023-04-17T18:39:03.378Z,99611.36
2023-04-17T18:41:31.143Z,99616.23
2023-04-17T18:43:58.796Z,99613.97
2023-04-17T18:46:28.416Z,99616.06
2023-04-17T18:48:56.478Z,99617.09
2023-04-17T18:51:24.236Z,99616.22
2023-04-17T18:53:52.008Z,99614.13
2023-04-17T18:56:19.693Z,99616.92
2023-04-17T18:58:47.429Z,99616.93
2023-04-17T19:01:15.550Z,99613.98
2023-04-17T19:03:43.472Z,99615.55
2023-04-17T19:06:11.133Z,99616.59
2023-04-17T19:08:41.558Z,99613.45
2023-04-17T19:11:09.219Z,99618.35
2023-04-17T19:13:36.991Z,99616.95
2023-04-17T19:16:04.715Z,99611.36
2023-04-17T19:18:32.613Z,99612.58
2023-04-17T19:21:00.379Z,99610.84
2023-04-17T19:23:28.142Z,99613.80
2023-04-17T19:25:56.621Z,99610.66
2023-04-17T19:28:25.606Z,99608.92
2023-04-17T19:30:54.300Z,99608.58
2023-04-17T19:33:23.755Z,99604.73
2023-04-17T19:35:52.799Z,99607.35
2023-04-17T19:38:20.674Z,99603.35
2023-04-17T19:40:48.428Z,99603.88
2023-04-17T19:43:16.096Z,99603.35
2023-04-17T19:45:44.129Z,99601.27
2023-04-17T19:48:12.033Z,99603.52
2023-04-17T19:50:39.702Z,99600.39
2023-04-17T19:53:07.349Z,99603.35
2023-04-17T19:55:35.113Z,99603.02
2023-04-17T19:58:02.741Z,99604.75
2023-04-17T20:00:30.435Z,99605.63
2023-04-17T20:02:58.272Z,99602.83
2023-04-17T20:05:26.373Z,99606.48
2023-04-17T20:07:54.444Z,99599.70
2023-04-17T20:10:22.423Z,99603.01
2023-04-17T20:12:50.078Z,99600.05
2023-04-17T20:15:19.987Z,99601.10
2023-04-17T20:17:47.917Z,99602.30
2023-04-17T20:20:15.844Z,99597.95
2023-04-17T20:22:43.595Z,99596.91
2023-04-17T20:25:11.353Z,99595.86
2023-04-17T20:27:39.121Z,99594.98
2023-04-17T20:30:07.098Z,99597.09
2023-04-17T20:32:34.792Z,99596.38
2023-04-17T20:35:02.514Z,99599.70
2023-04-17T20:37:30.280Z,99597.60
2023-04-17T20:39:58.043Z,99595.86
2023-04-17T20:42:25.705Z,99597.27
2023-04-17T20:44:53.773Z,99595.34
2023-04-17T20:47:21.500Z,99598.83
2023-04-17T20:49:49.309Z,99597.60
2023-04-17T20:52:16.925Z,99593.95
2023-04-17T20:54:44.631Z,99591.86
2023-04-17T20:57:12.289Z,99592.38
2023-04-17T20:59:39.956Z,99592.73
2023-04-17T21:02:07.737Z,99596.39
2023-04-17T21:04:35.592Z,99593.23
2023-04-17T21:07:03.649Z,99594.81
2023-04-17T21:09:31.310Z,99596.39
2023-04-17T21:11:58.982Z,99596.39
2023-04-17T21:14:27.558Z,99594.98
2023-04-17T21:16:56.654Z,99596.02
2023-04-17T21:19:26.162Z,99595.52
2023-04-17T21:21:53.923Z,99598.30
2023-04-17T21:24:21.687Z,99595.86
2023-04-17T21:26:49.765Z,99592.20
2023-04-17T21:29:17.837Z,99593.08
2023-04-17T21:31:45.598Z,99595.34
2023-04-17T21:34:14.105Z,99593.59
2023-04-17T21:36:41.941Z,99591.85
2023-04-17T21:39:09.913Z,99592.02
2023-04-17T21:41:37.572Z,99592.04
2023-04-17T21:44:05.859Z,99595.86
2023-04-17T21:46:33.612Z,99596.73
2023-04-17T21:49:01.478Z,99599.52
2023-04-17T21:51:29.143Z,99598.64
2023-04-17T21:53:56.804Z,99604.05
2023-04-17T21:56:24.577Z,99605.10
2023-04-17T21:58:52.431Z,99610.85
2023-04-17T22:01:20.447Z,99615.20
2023-04-17T22:03:48.274Z,99619.55
2023-04-17T22:06:16.036Z,99623.91
2023-04-17T22:08:43.798Z,99624.80
2023-04-17T22:11:11.574Z,99622.52
2023-04-17T22:13:39.332Z,99623.58
2023-04-17T22:16:07.100Z,99621.65
2023-04-17T22:18:34.845Z,99624.61
2023-04-17T22:21:02.518Z,99625.31
2023-04-17T22:23:30.711Z,99623.21
2023-04-17T22:25:58.361Z,99622.88
2023-04-17T22:28:26.015Z,99619.56
2023-04-17T22:30:53.685Z,99621.66
2023-04-17T22:33:21.463Z,99622.36
2023-04-17T22:35:49.209Z,99619.05
2023-04-17T22:38:16.821Z,99621.83
2023-04-17T22:40:44.527Z,99623.74
2023-04-17T22:43:12.209Z,99618.34
2023-04-17T22:45:39.963Z,99619.38
2023-04-17T22:48:07.786Z,99625.48
2023-04-17T22:50:37.907Z,99626.70
2023-04-17T22:53:05.907Z,99626.02
2023-04-17T22:55:33.686Z,99623.57
2023-04-17T22:58:01.516Z,99625.48
2023-04-17T23:00:29.304Z,99624.44
2023-04-17T23:02:57.085Z,99621.65
2023-04-17T23:05:25.052Z,99621.13
2023-04-17T23:07:53.008Z,99622.16
2023-04-17T23:10:21.079Z,99618.69
2023-04-17T23:12:49.356Z,99616.42
2023-04-17T23:15:17.217Z,99612.93
2023-04-17T23:17:44.874Z,99614.33
2023-04-17T23:20:12.949Z,99614.16
2023-04-17T23:22:40.678Z,99614.33
2023-04-17T23:25:08.472Z,99614.14
2023-04-17T23:27:36.239Z,99611.02
2023-04-17T23:30:03.903Z,99612.59
2023-04-17T23:32:31.599Z,99615.90
2023-04-17T23:34:59.327Z,99612.94
2023-04-17T23:37:26.991Z,99611.20
2023-04-17T23:39:54.687Z,99611.54
2023-04-17T23:42:22.418Z,99607.89
2023-04-17T23:44:50.200Z,99614.67
2023-04-17T23:47:17.959Z,99611.89
2023-04-17T23:49:45.712Z,99608.40
2023-04-17T23:52:13.374Z,99610.16
2023-04-17T23:54:41.134Z,99603.73
2023-04-17T23:57:08.799Z,99605.10
2023-04-17T23:59:36.562Z,99604.41
